^^
Station Historical Data
Daily Summary for January 22, 2018 Units:  Metric    English   Both
« Previous Day
Next Day »
Daily Weekly Monthly Yearly Custom
  High: Low: Average:
Temperature: -17.8 °C -23.8 °C -21.6 °C
Dew Point: -17.8 °C -24.5 °C -22.2 °C
Humidity: Humidity% 90% 92%
Wind Speed: 0km/h 0km/h 0.2km/h
Wind Gust: 0km/h - -
Wind- - East
Pressure: 0 hPa 34178.3 hPa -
Precipitation: 12.7 mm    
Historical Graphs
 
 
Tabular Data for January 22, 2018
Time Temperature Dew Point Pressure Wind Wind Speed Wind Gust Humidity Rainfall Rate (Hourly) solar Conditions
-17.8 °C -17.8 °C 0 hPa Calm     Humidity% 0 mm SoftwareType W/m2 Conditions
00:04 -23.4 °C -24.1 °C 34313.7 hPa Calm     91% 0 mm WeatherDisplay:10.37 W/m2 FEW
00:14 -23.6 °C -24.3 °C 34303.6 hPa Calm     90% 0 mm WeatherDisplay:10.37 W/m2 FEW
00:19 -23.6 °C -24.3 °C 34303.6 hPa Calm     90% 0 mm WeatherDisplay:10.37 W/m2 FEW
00:29 -23.7 °C -24.5 °C 34303.6 hPa Calm     90% 0 mm WeatherDisplay:10.37 W/m2 FEW
00:34 -23.8 °C -24.5 °C 34313.7 hPa Calm     90% 0 mm WeatherDisplay:10.37 W/m2 FEW
00:39 -23.7 °C -24.5 °C 34313.7 hPa Calm     90% 0 mm WeatherDisplay:10.37 W/m2 FEW
00:44 -23.7 °C -24.3 °C 34313.7 hPa Calm     91% 0 mm WeatherDisplay:10.37 W/m2 FEW
00:49 -23.7 °C -24.3 °C 34303.6 hPa Calm     91% 0 mm WeatherDisplay:10.37 W/m2 FEW
00:54 -23.6 °C -24.3 °C 34313.7 hPa Calm     91% 0 mm WeatherDisplay:10.37 W/m2 FEW
00:59 -23.6 °C -24.2 °C 34313.7 hPa Calm     91% 0 mm WeatherDisplay:10.37 W/m2 FEW
01:04 -23.5 °C -24.1 °C 34303.6 hPa Calm     91% 0 mm WeatherDisplay:10.37 W/m2 FEW
01:09 -23.4 °C -24.1 °C 34303.6 hPa Calm     91% 0 mm WeatherDisplay:10.37 W/m2 FEW
01:14 -23.4 °C -24 °C 34303.6 hPa Calm     91% 0 mm WeatherDisplay:10.37 W/m2 FEW
01:19 -23.3 °C -23.9 °C 34303.6 hPa Calm     92% 0 mm WeatherDisplay:10.37 W/m2 FEW
01:24 -23.3 °C -23.8 °C 34303.6 hPa Calm     92% 0 mm WeatherDisplay:10.37 W/m2 FEW
01:29 -23.2 °C -23.8 °C 34303.6 hPa Calm     92% 0 mm WeatherDisplay:10.37 W/m2 FEW
01:34 -23.2 °C -23.8 °C 34303.6 hPa Calm     92% 0 mm WeatherDisplay:10.37 W/m2 FEW
01:39 -23.2 °C -23.8 °C 34303.6 hPa Calm     92% 0 mm WeatherDisplay:10.37 W/m2 FEW
01:44 -23.2 °C -23.8 °C 34293.4 hPa Calm     91% 0 mm WeatherDisplay:10.37 W/m2 FEW
01:49 -23.2 °C -23.9 °C 34293.4 hPa Calm     91% 0 mm WeatherDisplay:10.37 W/m2 FEW
01:54 -23.3 °C -23.9 °C 34293.4 hPa Calm     91% 0 mm WeatherDisplay:10.37 W/m2 FEW
01:59 -23.3 °C -24 °C 34293.4 hPa Calm     91% 0 mm WeatherDisplay:10.37 W/m2 FEW
02:04 -23.4 °C -24 °C 34293.4 hPa Calm     91% 0 mm WeatherDisplay:10.37 W/m2 FEW
02:09 -23.4 °C -24 °C 34293.4 hPa Calm     91% 0 mm WeatherDisplay:10.37 W/m2 FEW
02:14 -23.4 °C -24.1 °C 34293.4 hPa Calm     91% 0 mm WeatherDisplay:10.37 W/m2 FEW
02:19 -23.4 °C -24.1 °C 34279.9 hPa Calm     91% 0 mm WeatherDisplay:10.37 W/m2 FEW
02:24 -23.4 °C -24.1 °C 34279.9 hPa Calm     91% 0 mm WeatherDisplay:10.37 W/m2 FEW
02:29 -23.4 °C -24.1 °C 34279.9 hPa Calm     91% 0 mm WeatherDisplay:10.37 W/m2 FEW
02:34 -23.4 °C -24.1 °C 34279.9 hPa Calm     91% 0 mm WeatherDisplay:10.37 W/m2 FEW
02:39 -23.4 °C -24.1 °C 34279.9 hPa Calm     91% 0 mm WeatherDisplay:10.37 W/m2 FEW
02:44 -23.4 °C -24.1 °C 34269.7 hPa Calm     91% 0 mm WeatherDisplay:10.37 W/m2 FEW
02:49 -23.4 °C -24.1 °C 34269.7 hPa Calm     91% 0 mm WeatherDisplay:10.37 W/m2 FEW
02:54 -23.5 °C -24.1 °C 34269.7 hPa Calm     91% 0 mm WeatherDisplay:10.37 W/m2 FEW
02:59 -23.5 °C -24.1 °C 34269.7 hPa Calm     91% 0 mm WeatherDisplay:10.37 W/m2 FEW
03:04 -23.4 °C -24.1 °C 34269.7 hPa Calm     91% 0 mm WeatherDisplay:10.37 W/m2 FEW
03:09 -23.4 °C -24.1 °C 34269.7 hPa Calm     91% 0 mm WeatherDisplay:10.37 W/m2 FEW
03:14 -23.4 °C -24.1 °C 34269.7 hPa Calm     91% 0 mm WeatherDisplay:10.37 W/m2 FEW
03:19 -23.3 °C -24 °C 34269.7 hPa Calm     91% 0 mm WeatherDisplay:10.37 W/m2 FEW
03:24 -23.3 °C -23.9 °C 34269.7 hPa Calm     91% 0 mm WeatherDisplay:10.37 W/m2 FEW
03:29 -23.2 °C -23.8 °C 34256.2 hPa Calm     92% 0 mm WeatherDisplay:10.37 W/m2 FEW
03:35 -23.2 °C -23.8 °C 34256.2 hPa Calm     92% 0 mm WeatherDisplay:10.37 W/m2 FEW
03:40 -23.2 °C -23.7 °C 34256.2 hPa Calm     92% 0 mm WeatherDisplay:10.37 W/m2 FEW
03:45 -23.1 °C -23.7 °C 34256.2 hPa Calm     92% 0 mm WeatherDisplay:10.37 W/m2 FEW
03:50 -23 °C -23.6 °C 34256.2 hPa Calm     92% 0 mm WeatherDisplay:10.37 W/m2 FEW
03:55 -22.9 °C -23.5 °C 34256.2 hPa Calm     92% 0 mm WeatherDisplay:10.37 W/m2 FEW
04:00 -22.9 °C -23.4 °C 34246 hPa Calm     92% 0 mm WeatherDisplay:10.37 W/m2 FEW
04:05 -22.8 °C -23.4 °C 34246 hPa Calm     92% 0 mm WeatherDisplay:10.37 W/m2 FEW
04:10 -22.7 °C -23.3 °C 34246 hPa Calm     92% 0 mm WeatherDisplay:10.37 W/m2 FEW
04:15 -22.7 °C -23.3 °C 34246 hPa Calm     92% 0 mm WeatherDisplay:10.37 W/m2 FEW
04:20 -22.6 °C -23.2 °C 34235.8 hPa Calm     92% 0 mm WeatherDisplay:10.37 W/m2 FEW
04:25 -22.6 °C -23.2 °C 34235.8 hPa Calm     92% 0 mm WeatherDisplay:10.37 W/m2 FEW
04:30 -22.6 °C -23.2 °C 34235.8 hPa Calm     92% 0 mm WeatherDisplay:10.37 W/m2 FEW
04:35 -22.5 °C -23.1 °C 34235.8 hPa Calm     92% 0 mm WeatherDisplay:10.37 W/m2 FEW
04:40 -22.4 °C -22.9 °C 34222.3 hPa Calm     93% 0 mm WeatherDisplay:10.37 W/m2 FEW
04:45 -22.4 °C -22.9 °C 34222.3 hPa Calm     92% 0 mm WeatherDisplay:10.37 W/m2 FEW
04:50 -22.3 °C -22.8 °C 34222.3 hPa Calm     93% 0 mm WeatherDisplay:10.37 W/m2 FEW
04:55 -22.2 °C -22.7 °C 34222.3 hPa Calm     93% 0 mm WeatherDisplay:10.37 W/m2 FEW
05:00 -22.1 °C -22.7 °C 34222.3 hPa Calm     93% 0 mm WeatherDisplay:10.37 W/m2 FEW
05:05 -22.1 °C -22.6 °C 34212.1 hPa Calm     93% 7.62 mm WeatherDisplay:10.37 W/m2 RA
05:15 -21.9 °C -22.4 °C 34212.1 hPa Calm     93% 7.62 mm WeatherDisplay:10.37 W/m2 FEW
05:20 -21.8 °C -22.3 °C 34212.1 hPa Calm     93% 7.62 mm WeatherDisplay:10.37 W/m2 FEW
05:25 -21.8 °C -22.3 °C 34212.1 hPa Calm     93% 7.62 mm WeatherDisplay:10.37 W/m2 FEW
05:30 -21.7 °C -22.3 °C 34212.1 hPa Calm     93% 7.62 mm WeatherDisplay:10.37 W/m2 FEW
05:35 -21.7 °C -22.2 °C 34212.1 hPa Calm     93% 7.62 mm WeatherDisplay:10.37 W/m2 FEW
05:45 -21.6 °C -22.1 °C 34212.1 hPa Calm     93% 7.62 mm WeatherDisplay:10.37 W/m2 FEW
05:50 -21.6 °C -22.1 °C 34212.1 hPa Calm     93% 7.62 mm WeatherDisplay:10.37 W/m2 FEW
06:00 -21.5 °C -22.1 °C 34198.6 hPa Calm     93% 7.62 mm WeatherDisplay:10.37 W/m2 FEW
06:05 -21.5 °C -22.1 °C 34198.6 hPa Calm     93% 0 mm WeatherDisplay:10.37 W/m2 FEW
06:10 -21.5 °C -22.1 °C 34198.6 hPa Calm     93% 0 mm WeatherDisplay:10.37 W/m2 FEW
06:15 -21.5 °C -22 °C 34198.6 hPa Calm     93% 0 mm WeatherDisplay:10.37 W/m2 FEW
06:20 -21.5 °C -22 °C 34198.6 hPa Calm     93% 0 mm WeatherDisplay:10.37 W/m2 FEW
06:25 -21.5 °C -22 °C 34198.6 hPa Calm     93% 0 mm WeatherDisplay:10.37 W/m2 FEW
06:30 -21.4 °C -22 °C 34198.6 hPa Calm     93% 0 mm WeatherDisplay:10.37 W/m2 FEW
06:35 -21.4 °C -22 °C 34198.6 hPa Calm     93% 0 mm WeatherDisplay:10.37 W/m2 FEW
06:40 -21.4 °C -21.9 °C 34198.6 hPa Calm     93% 0 mm WeatherDisplay:10.37 W/m2 FEW
06:45 -21.4 °C -21.9 °C 34188.4 hPa Calm     93% 0 mm WeatherDisplay:10.37 W/m2 FEW
06:50 -21.3 °C -21.9 °C 34188.4 hPa Calm     93% 0 mm WeatherDisplay:10.37 W/m2 FEW
07:00 -21.3 °C -21.8 °C 34188.4 hPa Calm     93% 0 mm WeatherDisplay:10.37 W/m2 FEW
07:05 -21.3 °C -21.8 °C 34188.4 hPa Calm     93% 0 mm WeatherDisplay:10.37 W/m2 FEW
07:10 -21.3 °C -21.8 °C 34188.4 hPa Calm     93% 0 mm WeatherDisplay:10.37 W/m2 FEW
07:15 -21.3 °C -21.8 °C 34188.4 hPa Calm     93% 0 mm WeatherDisplay:10.37 W/m2 FEW
07:20 -21.2 °C -21.8 °C 34178.3 hPa Calm     93% 0 mm WeatherDisplay:10.37 W/m2 FEW
07:25 -21.2 °C -21.8 °C 34178.3 hPa Calm     93% 0 mm WeatherDisplay:10.37 W/m2 FEW
07:30 -21.2 °C -21.7 °C 34178.3 hPa Calm     93% 0 mm WeatherDisplay:10.37 W/m2 FEW
07:40 -21.2 °C -21.7 °C 34178.3 hPa Calm     93% 0 mm WeatherDisplay:10.37 W/m2 FEW
07:45 -21.2 °C -21.7 °C 34178.3 hPa Calm     93% 0 mm WeatherDisplay:10.37 W/m2 FEW
07:50 -21.2 °C -21.7 °C 34178.3 hPa Calm     93% 0 mm WeatherDisplay:10.37 W/m2 FEW
07:55 -21.2 °C -21.7 °C 34178.3 hPa Calm     93% 0 mm WeatherDisplay:10.37 W/m2 FEW
08:00 -21.2 °C -21.7 °C 34178.3 hPa Calm     93% 0 mm WeatherDisplay:10.37 W/m2 FEW
08:05 -21.2 °C -21.8 °C 34178.3 hPa Calm     93% 0 mm WeatherDisplay:10.37 W/m2 FEW
08:10 -21.2 °C -21.8 °C 34178.3 hPa Calm     93% 0 mm WeatherDisplay:10.37 W/m2 FEW
08:15 -21.2 °C -21.8 °C 34178.3 hPa Calm     93% 0 mm WeatherDisplay:10.37 W/m2 FEW
08:25 -21.3 °C -21.8 °C 34178.3 hPa Calm     93% 0 mm WeatherDisplay:10.37 W/m2 FEW
08:30 -21.3 °C -21.8 °C 34178.3 hPa Calm     93% 0 mm WeatherDisplay:10.37 W/m2 FEW
08:35 -21.2 °C -21.8 °C 34178.3 hPa Calm     93% 0 mm WeatherDisplay:10.37 W/m2 FEW
08:40 -21.2 °C -21.7 °C 34178.3 hPa Calm     93% 0 mm WeatherDisplay:10.37 W/m2 FEW
08:50 -21.2 °C -21.7 °C 34178.3 hPa Calm     93% 0 mm WeatherDisplay:10.37 W/m2 FEW
08:55 -21.2 °C -21.7 °C 34178.3 hPa Calm     93% 0 mm WeatherDisplay:10.37 W/m2 FEW
09:00 -21.1 °C -21.6 °C 34178.3 hPa Calm     93% 0 mm WeatherDisplay:10.37 W/m2 FEW
09:05 -21.1 °C -21.6 °C 34178.3 hPa Calm     93% 0 mm WeatherDisplay:10.37 W/m2 FEW
09:10 -21.1 °C -21.6 °C 34178.3 hPa Calm     93% 0 mm WeatherDisplay:10.37 W/m2 FEW
09:15 -21 °C -21.6 °C 34178.3 hPa Calm     93% 0 mm WeatherDisplay:10.37 W/m2 FEW
09:20 -21 °C -21.5 °C 34178.3 hPa Calm     93% 0 mm WeatherDisplay:10.37 W/m2 FEW
09:25 -20.9 °C -21.5 °C 34178.3 hPa Calm     93% 0 mm WeatherDisplay:10.37 W/m2 FEW
09:30 -20.9 °C -21.4 °C 34178.3 hPa Calm     93% 0 mm WeatherDisplay:10.37 W/m2 FEW
09:45 -20.8 °C -21.3 °C 34178.3 hPa Calm     94% 0 mm WeatherDisplay:10.37 W/m2 FEW
09:50 -20.7 °C -21.2 °C 34178.3 hPa Calm     94% 0 mm WeatherDisplay:10.37 W/m2 FEW
10:00 -20.7 °C -21.2 °C 34178.3 hPa Calm     93% 0 mm WeatherDisplay:10.37 W/m2 FEW
10:10 -20.5 °C -21.1 °C 34178.3 hPa Calm     93% 0 mm WeatherDisplay:10.37 W/m2 FEW
10:15 -20.4 °C -21 °C 34178.3 hPa Calm     93% 0 mm WeatherDisplay:10.37 W/m2 FEW
10:20 -20.4 °C -20.8 °C 34178.3 hPa Calm     94% 0 mm WeatherDisplay:10.37 W/m2 FEW
10:25 -20.3 °C -20.9 °C 34178.3 hPa Calm     93% 0 mm WeatherDisplay:10.37 W/m2 FEW
10:30 -20.3 °C -20.8 °C 34178.3 hPa Calm     93% 0 mm WeatherDisplay:10.37 W/m2 FEW
10:35 -20.2 °C -20.7 °C 34178.3 hPa Calm     94% 0 mm WeatherDisplay:10.37 W/m2 FEW
10:40 -20.2 °C -20.7 °C 34178.3 hPa Calm     94% 0 mm WeatherDisplay:10.37 W/m2 FEW
10:45 -20.2 °C -20.7 °C 34178.3 hPa Calm     93% 0 mm WeatherDisplay:10.37 W/m2 FEW
11:00 -19.9 °C -20.4 °C 34188.4 hPa Calm     93% 0 mm WeatherDisplay:10.37 W/m2 FEW
11:05 -19.8 °C -20.3 °C 34188.4 hPa Calm     94% 0 mm WeatherDisplay:10.37 W/m2 FEW
11:10 -19.8 °C -20.3 °C 34188.4 hPa Calm     93% 0 mm WeatherDisplay:10.37 W/m2 FEW
11:20 -19.6 °C -20.1 °C 34188.4 hPa Calm     94% 0 mm WeatherDisplay:10.37 W/m2 FEW
11:30 -19.6 °C -20.1 °C 34188.4 hPa Calm     93% 0 mm WeatherDisplay:10.37 W/m2 FEW
11:40 -19.5 °C -19.9 °C 34188.4 hPa Calm     94% 0 mm WeatherDisplay:10.37 W/m2 FEW
11:45 -19.5 °C -20 °C 34188.4 hPa Calm     93% 0 mm WeatherDisplay:10.37 W/m2 FEW
11:50 -19.4 °C -19.9 °C 34188.4 hPa Calm     93% 0 mm WeatherDisplay:10.37 W/m2 FEW
11:55 -19.4 °C -19.8 °C 34188.4 hPa Calm     94% 0 mm WeatherDisplay:10.37 W/m2 FEW
12:00 -19.3 °C -19.8 °C 34188.4 hPa Calm     94% 0 mm WeatherDisplay:10.37 W/m2 FEW
12:05 -19.3 °C -19.8 °C 34188.4 hPa Calm     94% 0 mm WeatherDisplay:10.37 W/m2 FEW
12:10 -19.3 °C -19.9 °C 34188.4 hPa NNW 0.3 km/h 3.1 km/h 93% 0 mm WeatherDisplay:10.37 W/m2 FEW
12:15 -19.3 °C -19.8 °C 34188.4 hPa Calm     93% 0 mm WeatherDisplay:10.37 W/m2 FEW
12:20 -19.3 °C -19.8 °C 34178.3 hPa Calm     93% 0 mm WeatherDisplay:10.37 W/m2 FEW
12:25 -19.3 °C -19.8 °C 34178.3 hPa Calm     93% 0 mm WeatherDisplay:10.37 W/m2 FEW
12:30 -19.2 °C -19.8 °C 34178.3 hPa Calm     93% 0 mm WeatherDisplay:10.37 W/m2 FEW
12:35 -19.2 °C -19.8 °C 34178.3 hPa Calm     93% 0 mm WeatherDisplay:10.37 W/m2 FEW
12:40 -19.2 °C -19.7 °C 34178.3 hPa Calm     93% 0 mm WeatherDisplay:10.37 W/m2 FEW
12:45 -19.2 °C -19.7 °C 34178.3 hPa Calm     93% 0 mm WeatherDisplay:10.37 W/m2 FEW
12:50 -19.1 °C -19.7 °C 34178.3 hPa Calm     93% 0 mm WeatherDisplay:10.37 W/m2 FEW
12:55 -19.1 °C -19.7 °C 34178.3 hPa Calm     93% 0 mm WeatherDisplay:10.37 W/m2 FEW
13:00 -19.1 °C -19.7 °C 34178.3 hPa Calm     93% 0 mm WeatherDisplay:10.37 W/m2 FEW
13:05 -19.1 °C -19.7 °C 34178.3 hPa Calm     93% 0 mm WeatherDisplay:10.37 W/m2 FEW
13:10 -19.1 °C -19.7 °C 34178.3 hPa Calm   3.1 km/h 93% 0 mm WeatherDisplay:10.37 W/m2 FEW
13:15 -19.1 °C -19.7 °C 34178.3 hPa West 0.8 km/h 6 km/h 93% 0 mm WeatherDisplay:10.37 W/m2 FEW
13:20 -19.1 °C -19.7 °C 34178.3 hPa Calm   2.6 km/h 93% 0 mm WeatherDisplay:10.37 W/m2 FEW
13:25 -19.1 °C -19.7 °C 34178.3 hPa Calm     93% 0 mm WeatherDisplay:10.37 W/m2 FEW
13:35 -19.1 °C -19.7 °C 34178.3 hPa Calm     93% 0 mm WeatherDisplay:10.37 W/m2 FEW
13:40 -19.1 °C -19.7 °C 34178.3 hPa Calm     93% 0 mm WeatherDisplay:10.37 W/m2 FEW
13:45 -19.1 °C -19.7 °C 34178.3 hPa Calm     93% 0 mm WeatherDisplay:10.37 W/m2 FEW
13:50 -19.1 °C -19.7 °C 34178.3 hPa Calm     93% 0 mm WeatherDisplay:10.37 W/m2 FEW
13:55 -19.1 °C -19.7 °C 34178.3 hPa Calm     93% 0 mm WeatherDisplay:10.37 W/m2 FEW
14:05 -19.1 °C -19.7 °C 34178.3 hPa Calm     93% 0 mm WeatherDisplay:10.37 W/m2 FEW
14:10 -19.1 °C -19.7 °C 34178.3 hPa Calm     93% 0 mm WeatherDisplay:10.37 W/m2 FEW
14:15 -19.1 °C -19.7 °C 34178.3 hPa Calm     93% 0 mm WeatherDisplay:10.37 W/m2 FEW
14:20 -19.1 °C -19.7 °C 34188.4 hPa Calm     93% 0 mm WeatherDisplay:10.37 W/m2 FEW
14:25 -19.1 °C -19.7 °C 34178.3 hPa Calm     93% 0 mm WeatherDisplay:10.37 W/m2 FEW
14:30 -19.1 °C -19.7 °C 34178.3 hPa Calm     93% 0 mm WeatherDisplay:10.37 W/m2 FEW
14:35 -19.1 °C -19.7 °C 34188.4 hPa West 0.3 km/h 9 km/h 93% 0 mm WeatherDisplay:10.37 W/m2 FEW
14:40 -19.1 °C -19.7 °C 34188.4 hPa West 0.5 km/h 3.1 km/h 93% 0 mm WeatherDisplay:10.37 W/m2 FEW
14:45 -19.1 °C -19.7 °C 34178.3 hPa Calm     93% 0 mm WeatherDisplay:10.37 W/m2 FEW
14:50 -19.1 °C -19.7 °C 34188.4 hPa Calm     93% 0 mm WeatherDisplay:10.37 W/m2 FEW
14:55 -19.1 °C -19.7 °C 34188.4 hPa Calm     93% 0 mm WeatherDisplay:10.37 W/m2 FEW
15:00 -19.1 °C -19.7 °C 34188.4 hPa Calm     93% 0 mm WeatherDisplay:10.37 W/m2 FEW
15:05 -19.1 °C -19.7 °C 34188.4 hPa Calm     93% 0 mm WeatherDisplay:10.37 W/m2 FEW
15:10 -19.1 °C -19.7 °C 34188.4 hPa Calm     93% 0 mm WeatherDisplay:10.37 W/m2 FEW
15:15 -19.2 °C -19.7 °C 34188.4 hPa Calm     93% 0 mm WeatherDisplay:10.37 W/m2 FEW
15:20 -19.2 °C -19.7 °C 34188.4 hPa Calm     93% 0 mm WeatherDisplay:10.37 W/m2 FEW
15:25 -19.2 °C -19.7 °C 34188.4 hPa Calm     93% 0 mm WeatherDisplay:10.37 W/m2 FEW
15:30 -19.2 °C -19.7 °C 34188.4 hPa Calm     93% 0 mm WeatherDisplay:10.37 W/m2 FEW
15:35 -19.2 °C -19.7 °C 34188.4 hPa Calm     93% 0 mm WeatherDisplay:10.37 W/m2 FEW
15:40 -19.2 °C -19.7 °C 34188.4 hPa Calm     93% 0 mm WeatherDisplay:10.37 W/m2 FEW
15:45 -19.2 °C -19.7 °C 34188.4 hPa Calm     93% 0 mm WeatherDisplay:10.37 W/m2 FEW
15:50 -19.2 °C -19.7 °C 34188.4 hPa Calm     93% 0 mm WeatherDisplay:10.37 W/m2 FEW
16:00 -19.2 °C -19.7 °C 34188.4 hPa Calm     93% 0 mm WeatherDisplay:10.37 W/m2 FEW
16:05 -19.2 °C -19.7 °C 34188.4 hPa Calm     93% 0 mm WeatherDisplay:10.37 W/m2 FEW
16:10 -19.2 °C -19.8 °C 34198.6 hPa Calm     93% 0 mm WeatherDisplay:10.37 W/m2 FEW
16:15 -19.3 °C -19.8 °C 34198.6 hPa ENE 6.4 km/h 9 km/h 93% 0 mm WeatherDisplay:10.37 W/m2 FEW
16:25 -19.8 °C -20.5 °C 34198.6 hPa ENE 4.3 km/h 9 km/h 91% 0 mm WeatherDisplay:10.37 W/m2 FEW
16:40 -20.4 °C -21.1 °C 34212.1 hPa Calm   3.1 km/h 91% 0 mm WeatherDisplay:10.37 W/m2 FEW
16:50 -20.7 °C -21.3 °C 34212.1 hPa Calm     91% 7.62 mm WeatherDisplay:10.37 W/m2 RA
16:55 -20.7 °C -21.4 °C 34212.1 hPa Calm     91% 7.62 mm WeatherDisplay:10.37 W/m2 FEW
17:00 -20.8 °C -21.5 °C 34222.3 hPa NNE 1.3 km/h 6 km/h 91% 7.62 mm WeatherDisplay:10.37 W/m2 FEW
17:05 -21 °C -21.7 °C 34222.3 hPa NNE 4.2 km/h 9 km/h 91% 7.62 mm WeatherDisplay:10.37 W/m2 FEW
17:10 -21.2 °C -21.9 °C 34222.3 hPa Calm   11.9 km/h 90% 7.62 mm WeatherDisplay:10.37 W/m2 FEW
17:15 -21.2 °C -22 °C 34222.3 hPa Calm     90% 7.62 mm WeatherDisplay:10.37 W/m2 FEW
17:20 -21.3 °C -21.9 °C 34235.8 hPa NE 1.6 km/h 9 km/h 91% 7.62 mm WeatherDisplay:10.37 W/m2 FEW
17:25 -21.3 °C -22 °C 34235.8 hPa Calm     91% 7.62 mm WeatherDisplay:10.37 W/m2 FEW
17:30 -21.3 °C -22.1 °C 34235.8 hPa Calm     91% 7.62 mm WeatherDisplay:10.37 W/m2 FEW
17:35 -21.4 °C -22.1 °C 34235.8 hPa Calm   6 km/h 91% 7.62 mm WeatherDisplay:10.37 W/m2 FEW
17:40 -21.5 °C -22.2 °C 34235.8 hPa Calm     91% 7.62 mm WeatherDisplay:10.37 W/m2 FEW
17:45 -21.5 °C -22.2 °C 34235.8 hPa Calm     91% 7.62 mm WeatherDisplay:10.37 W/m2 RA
17:50 -21.5 °C -22.2 °C 34235.8 hPa NNE 0.5 km/h 5.1 km/h 91% 7.62 mm WeatherDisplay:10.37 W/m2 RA
17:55 -21.5 °C -22.2 °C 34235.8 hPa Calm     91% 7.62 mm WeatherDisplay:10.37 W/m2 FEW
18:00 -21.6 °C -22.2 °C 34246 hPa Calm     91% 7.62 mm WeatherDisplay:10.37 W/m2 FEW
18:05 -21.6 °C -22.3 °C 34246 hPa Calm     91% 7.62 mm WeatherDisplay:10.37 W/m2 FEW
18:10 -21.6 °C -22.3 °C 34246 hPa NE 1 km/h 2.6 km/h 91% 7.62 mm WeatherDisplay:10.37 W/m2 FEW
18:15 -21.7 °C -22.3 °C 34246 hPa Calm     91% 7.62 mm WeatherDisplay:10.37 W/m2 FEW
18:20 -21.8 °C -22.6 °C 34246 hPa Calm     90% 7.62 mm WeatherDisplay:10.37 W/m2 FEW
18:25 -21.9 °C -22.6 °C 34256.2 hPa NE 0.3 km/h 6 km/h 90% 7.62 mm WeatherDisplay:10.37 W/m2 FEW
18:30 -22 °C -22.7 °C 34256.2 hPa Calm     90% 7.62 mm WeatherDisplay:10.37 W/m2 FEW
18:35 -22.1 °C -22.8 °C 34256.2 hPa NNE 1.8 km/h 9 km/h 90% 7.62 mm WeatherDisplay:10.37 W/m2 FEW
18:40 -22.1 °C -22.8 °C 34256.2 hPa Calm     90% 7.62 mm WeatherDisplay:10.37 W/m2 FEW
18:45 -22.1 °C -22.9 °C 34269.7 hPa Calm     90% 0 mm WeatherDisplay:10.37 W/m2 FEW
18:50 -22.2 °C -22.8 °C 34269.7 hPa Calm     91% 0 mm WeatherDisplay:10.37 W/m2 FEW
18:55 -22.2 °C -22.9 °C 34269.7 hPa Calm     90% 0 mm WeatherDisplay:10.37 W/m2 FEW
19:00 -22.2 °C -22.9 °C 34269.7 hPa Calm     91% 0 mm WeatherDisplay:10.37 W/m2 FEW
19:05 -22.2 °C -22.9 °C 34269.7 hPa NNE 0.3 km/h   91% 0 mm WeatherDisplay:10.37 W/m2 FEW
19:10 -22.2 °C -22.9 °C 34269.7 hPa Calm     91% 0 mm WeatherDisplay:10.37 W/m2 FEW
19:15 -22.2 °C -22.9 °C 34269.7 hPa Calm     91% 0 mm WeatherDisplay:10.37 W/m2 FEW
19:20 -22.2 °C -22.9 °C 34279.9 hPa Calm     91% 0 mm WeatherDisplay:10.37 W/m2 FEW
19:25 -22.2 °C -22.9 °C 34279.9 hPa Calm     91% 0 mm WeatherDisplay:10.37 W/m2 FEW
19:30 -22.2 °C -22.9 °C 34279.9 hPa Calm     91% 0 mm WeatherDisplay:10.37 W/m2 FEW
19:35 -22.2 °C -22.9 °C 34279.9 hPa Calm     91% 0 mm WeatherDisplay:10.37 W/m2 FEW
19:40 -22.3 °C -23 °C 34279.9 hPa Calm   6 km/h 90% 0 mm WeatherDisplay:10.37 W/m2 FEW
19:45 -22.3 °C -23.1 °C 34293.4 hPa Calm     90% 0 mm WeatherDisplay:10.37 W/m2 FEW
19:50 -22.3 °C -23.1 °C 34293.4 hPa NNE 1 km/h 5.1 km/h 90% 0 mm WeatherDisplay:10.37 W/m2 FEW
19:55 -22.4 °C -23.1 °C 34293.4 hPa Calm     90% 0 mm WeatherDisplay:10.37 W/m2 FEW
20:00 -22.4 °C -23.1 °C 34293.4 hPa Calm     90% 0 mm WeatherDisplay:10.37 W/m2 FEW
20:05 -22.4 °C -23.1 °C 34293.4 hPa Calm     90% 0 mm WeatherDisplay:10.37 W/m2 FEW
20:10 -22.4 °C -23.1 °C 34293.4 hPa Calm     90% 0 mm WeatherDisplay:10.37 W/m2 FEW
20:15 -22.4 °C -23.1 °C 34293.4 hPa NNE 1.8 km/h 9 km/h 90% 0 mm WeatherDisplay:10.37 W/m2 FEW
20:20 -22.4 °C -23.1 °C 34293.4 hPa Calm     90% 0 mm WeatherDisplay:10.37 W/m2 FEW
20:25 -22.4 °C -23.1 °C 34293.4 hPa Calm     90% 0 mm WeatherDisplay:10.37 W/m2 FEW
20:30 -22.4 °C -23.1 °C 34293.4 hPa Calm   3.1 km/h 91% 0 mm WeatherDisplay:10.37 W/m2 FEW
20:35 -22.4 °C -23.1 °C 34293.4 hPa Calm     91% 0 mm WeatherDisplay:10.37 W/m2 FEW
20:40 -22.4 °C -23.1 °C 34293.4 hPa Calm     91% 0 mm WeatherDisplay:10.37 W/m2 FEW
20:45 -22.4 °C -23.1 °C 34293.4 hPa NNE 2.9 km/h 9 km/h 91% 0 mm WeatherDisplay:10.37 W/m2 FEW
20:50 -22.4 °C -23.2 °C 34303.6 hPa Calm     90% 0 mm WeatherDisplay:10.37 W/m2 FEW
20:55 -22.4 °C -23.2 °C 34303.6 hPa Calm     91% 0 mm WeatherDisplay:10.37 W/m2 FEW
21:00 -22.4 °C -23.2 °C 34303.6 hPa Calm     91% 0 mm WeatherDisplay:10.37 W/m2 FEW
21:05 -22.4 °C -23.2 °C 34303.6 hPa Calm     91% 0 mm WeatherDisplay:10.37 W/m2 FEW
21:10 -22.5 °C -23.2 °C 34303.6 hPa Calm     91% 0 mm WeatherDisplay:10.37 W/m2 FEW
21:15 -22.5 °C -23.2 °C 34303.6 hPa Calm     91% 0 mm WeatherDisplay:10.37 W/m2 FEW
21:20 -22.6 °C -23.2 °C 34303.6 hPa Calm     91% 0 mm WeatherDisplay:10.37 W/m2 FEW
21:25 -22.6 °C -23.3 °C 34303.6 hPa Calm     90% 0 mm WeatherDisplay:10.37 W/m2 FEW
21:30 -22.6 °C -23.3 °C 34303.6 hPa Calm     90% 0 mm WeatherDisplay:10.37 W/m2 FEW
21:35 -22.6 °C -23.4 °C 34303.6 hPa Calm     90% 0 mm WeatherDisplay:10.37 W/m2 FEW
21:40 -22.7 °C -23.4 °C 34303.6 hPa Calm     90% 0 mm WeatherDisplay:10.37 W/m2 FEW
21:45 -22.7 °C -23.5 °C 34313.7 hPa Calm     90% 0 mm WeatherDisplay:10.37 W/m2 FEW
21:50 -22.7 °C -23.5 °C 34313.7 hPa Calm     90% 0 mm WeatherDisplay:10.37 W/m2 FEW
21:55 -22.8 °C -23.5 °C 34313.7 hPa Calm     90% 0 mm WeatherDisplay:10.37 W/m2 FEW
22:00 -22.8 °C -23.6 °C 34313.7 hPa Calm     90% 0 mm WeatherDisplay:10.37 W/m2 FEW
22:05 -22.8 °C -23.5 °C 34313.7 hPa Calm     91% 0 mm WeatherDisplay:10.37 W/m2 FEW
22:10 -22.8 °C -23.5 °C 34313.7 hPa Calm     91% 0 mm WeatherDisplay:10.37 W/m2 FEW
22:15 -22.8 °C -23.5 °C 34327.3 hPa Calm     91% 0 mm WeatherDisplay:10.37 W/m2 FEW
22:20 -22.8 °C -23.5 °C 34327.3 hPa Calm     91% 0 mm WeatherDisplay:10.37 W/m2 FEW
22:25 -22.8 °C -23.5 °C 34327.3 hPa Calm     91% 0 mm WeatherDisplay:10.37 W/m2 FEW
22:30 -22.9 °C -23.6 °C 34327.3 hPa Calm     91% 0 mm WeatherDisplay:10.37 W/m2 FEW
22:35 -22.9 °C -23.6 °C 34327.3 hPa Calm     91% 0 mm WeatherDisplay:10.37 W/m2 FEW
22:40 -22.9 °C -23.6 °C 34337.4 hPa Calm     91% 0 mm WeatherDisplay:10.37 W/m2 FEW
22:45 -22.9 °C -23.6 °C 34337.4 hPa Calm     91% 0 mm WeatherDisplay:10.37 W/m2 FEW
22:50 -22.9 °C -23.7 °C 34337.4 hPa Calm     91% 0 mm WeatherDisplay:10.37 W/m2 FEW
22:55 -23 °C -23.8 °C 34337.4 hPa Calm     90% 0 mm WeatherDisplay:10.37 W/m2 FEW
23:00 -23.1 °C -23.8 °C 34337.4 hPa Calm     90% 0 mm WeatherDisplay:10.37 W/m2 FEW
23:05 -23.2 °C -23.9 °C 34337.4 hPa Calm     90% 0 mm WeatherDisplay:10.37 W/m2 FEW
23:10 -23.3 °C -24.1 °C 34337.4 hPa Calm     90% 0 mm WeatherDisplay:10.37 W/m2 FEW
23:15 -23.4 °C -24.1 °C 34337.4 hPa Calm     90% 0 mm WeatherDisplay:10.37 W/m2 FEW
23:20 -23.4 °C -24.2 °C 34337.4 hPa Calm     90% 0 mm WeatherDisplay:10.37 W/m2 FEW
23:25 -23.5 °C -24.3 °C 34347.6 hPa Calm     90% 0 mm WeatherDisplay:10.37 W/m2 FEW
23:30 -23.5 °C -24.3 °C 34347.6 hPa Calm     90% 0 mm WeatherDisplay:10.37 W/m2 FEW
23:35 -23.5 °C -24.3 °C 34347.6 hPa Calm     90% 0 mm WeatherDisplay:10.37 W/m2 FEW
23:40 -23.5 °C -24.3 °C 34347.6 hPa Calm     90% 0 mm WeatherDisplay:10.37 W/m2 FEW
23:45 -23.5 °C -24.2 °C 34347.6 hPa Calm     91% 0 mm WeatherDisplay:10.37 W/m2 FEW
23:50 -23.5 °C -24.1 °C 34361.1 hPa Calm     91% 0 mm WeatherDisplay:10.37 W/m2 FEW
23:55 -23.4 °C -24.1 °C 34361.1 hPa Calm     91% 0 mm WeatherDisplay:10.37 W/m2 FEW
Tuulensuunkaari, Veikkola, Suomi
Compliments of Weather Underground - 2.5 mb